WetterOnline ( https://www.wetteronline.ch )

Wetter aktuell Höxter

Aktuelles Wetter: Lügde-Paenbruch (260m)

6-stündlich | Neueste Meldungen
Ortszeit Temperatur Wetter
Mo, 09.12. 1:00 6.1° C bewölkt
So, 08.12. 19:00 7.3° C wolkig
So, 08.12. 13:00 9.1° C Sprühregen
So, 08.12. 7:00 7.0° C bewölkt
So, 08.12. 1:00 7.1° C bedeckt
Sa, 07.12. 19:00 6.8° C bewölkt
Sa, 07.12. 13:00 7.3° C Sprühregen
Sa, 07.12. 7:00 7.5° C Sprühregen
Ortszeit Temperatur Wetter
Mo, 09.12. 3:30 5.6° C wolkig
Mo, 09.12. 3:20 5.6° C wolkig
Mo, 09.12. 3:10 5.7° C bewölkt
Mo, 09.12. 3:00 5.8° C bedeckt
Mo, 09.12. 2:50 5.8° C bedeckt
Mo, 09.12. 2:40 5.9° C bedeckt
Mo, 09.12. 2:30 5.9° C bewölkt
Mo, 09.12. 2:00 6.0° C bewölkt
Mo, 09.12. 0:00 6.6° C bewölkt
Ortszeit Relative Feuchte Sichtweite
Mo, 09.12. 1:00 75% >70 km
So, 08.12. 19:00 80% 29 km
So, 08.12. 13:00 87% 8 km
So, 08.12. 7:00 78% 60 km
So, 08.12. 1:00 76% 50 km
Sa, 07.12. 19:00 90% 23 km
Sa, 07.12. 13:00 92% 14 km
Sa, 07.12. 7:00 90% 35 km
Ortszeit Relative Feuchte Sichtweite
Mo, 09.12. 3:30 77% 40 km
Mo, 09.12. 3:20 77% -
Mo, 09.12. 3:10 78% -
Mo, 09.12. 3:00 77% 45 km
Mo, 09.12. 2:50 77% -
Mo, 09.12. 2:40 77% -
Mo, 09.12. 2:30 76% 50 km
Mo, 09.12. 2:00 77% 45 km
Mo, 09.12. 0:00 79% 50 km
Ortszeit Niederschlagsmenge Niederschlagsart
Mo, 09.12. 1:00 0.3 l/m2 in 6 Std. Regen
So, 08.12. 19:00 1 l/m2 in 12 Std. Regen
So, 08.12. 13:00 0.1 l/m2 in 6 Std. Regen
So, 08.12. 7:00 0.1 l/m2 in 12 Std. -
So, 08.12. 1:00 0.1 l/m2 in 6 Std. Regen
Sa, 07.12. 19:00 2 l/m2 in 12 Std. Regen
Sa, 07.12. 13:00 1 l/m2 in 6 Std. Regen
Sa, 07.12. 7:00 2 l/m2 in 12 Std. Regen
Ortszeit Niederschlagsmenge Niederschlagsart
Mo, 09.12. 3:30 0.0 l/m2 in 1 Std. -
Mo, 09.12. 3:20 keine Meldung -
Mo, 09.12. 3:10 keine Meldung -
Mo, 09.12. 3:00 0.0 l/m2 in 1 Std. -
Mo, 09.12. 2:50 keine Meldung -
Mo, 09.12. 2:40 keine Meldung -
Mo, 09.12. 2:30 0.0 l/m2 in 1 Std. -
Mo, 09.12. 2:00 0.1 l/m2 in 1 Std. Regen
Mo, 09.12. 0:00 keine Meldung -
Ortszeit Stärke Spitze Richtung
km/h Bft. km/h Grad Sektor
Mo, 09.12. 1:00 24 4 52 250° W
So, 08.12. 19:00 18 3 50 240° SW
So, 08.12. 13:00 22 4 50 200° S
So, 08.12. 7:00 24 4 50 200° S
So, 08.12. 1:00 20 4 39 220° SW
Sa, 07.12. 19:00 14 3 40 250° W
Sa, 07.12. 13:00 14 3 43 260° W
Sa, 07.12. 7:00 17 3 52 260° W
Ortszeit Stärke Spitze Richtung
km/h Bft. km/h Grad Sektor
Mo, 09.12. 3:30 14 3 32 220° SW
Mo, 09.12. 3:20 14 3 - 220° SW
Mo, 09.12. 3:10 15 3 - 230° SW
Mo, 09.12. 3:00 20 4 48 240° SW
Mo, 09.12. 2:50 20 4 - 240° SW
Mo, 09.12. 2:40 18 3 - 240° SW
Mo, 09.12. 2:30 19 3 39 250° W
Mo, 09.12. 2:00 20 4 50 240° SW
Mo, 09.12. 0:00 25 4 50 220° SW
Ortszeit Untergrenze Bedeckung Gattung
total tief tief mittel hoch
Mo, 09.12. 1:00 780 m 8/8 6/8 - - -
So, 08.12. 19:00 690 m 6/8 6/8 - - -
So, 08.12. 13:00 570 m 8/8 8/8 - - -
So, 08.12. 7:00 720 m 7/8 7/8 - - -
So, 08.12. 1:00 780 m 8/8 8/8 - - -
Sa, 07.12. 19:00 420 m 7/8 7/8 - - -
Sa, 07.12. 13:00 330 m 7/8 8/8 - - -
Sa, 07.12. 7:00 360 m 7/8 7/8 - - -
Ortszeit Bedeckungsgrad in Achtel und Wolkenuntergrenze
Mo, 09.12. 3:30 2(660m) 5(1140m) 6(1470m)
Mo, 09.12. 3:20 2(660m) 5(1140m) 6(1470m)
Mo, 09.12. 3:10 5(660m) 7(1050m) 7(1230m)
Mo, 09.12. 3:00 8(690m) 8(1080m) 8(1140m)
Mo, 09.12. 2:50 8(690m) 8(1080m)
Mo, 09.12. 2:40 6(690m) 7(840m) 8(990m)
Mo, 09.12. 2:30 5(720m) 6(900m) 7(1020m)
Mo, 09.12. 2:00 6(690m) 7(900m) 7(1110m)
Mo, 09.12. 0:00 1(900m) 7(2400m) 7(4200m)
Ortszeit Luftdruck NN (hPa) Tendenz (hPa in 3 Std.)
Mo, 09.12. 1:00 998 - 0,7
So, 08.12. 19:00 1000 + 0,4
So, 08.12. 13:00 1000 - 1,3
So, 08.12. 7:00 1006 - 2,7
So, 08.12. 1:00 1012 - 1,5
Sa, 07.12. 19:00 1014 + 1,4
Sa, 07.12. 13:00 1011 + 0,8
Sa, 07.12. 7:00 1008 + 2,8
Ortszeit Luftdruck NN (hPa) Tendenz (hPa in 3 Std.)
Mo, 09.12. 3:30 998 + 0,2
Mo, 09.12. 3:20 998 keine Meldung
Mo, 09.12. 3:10 998 keine Meldung
Mo, 09.12. 3:00 998 + 0,8
Mo, 09.12. 2:50 998 keine Meldung
Mo, 09.12. 2:40 998 keine Meldung
Mo, 09.12. 2:30 998 + 0,5
Mo, 09.12. 2:00 998 + 0,2
Mo, 09.12. 0:00 998 - 1,5
Ortszeit Schneehöhe (cm)
Mo, 09.12. 1:00 0
So, 08.12. 19:00 0
So, 08.12. 13:00 0
So, 08.12. 7:00 0
So, 08.12. 1:00 0
Sa, 07.12. 19:00 0
Sa, 07.12. 13:00 0
Sa, 07.12. 7:00 0
Ortszeit Schneehöhe (cm)
Mo, 09.12. 3:30 0
Mo, 09.12. 3:20 0
Mo, 09.12. 3:10 0
Mo, 09.12. 3:00 0
Mo, 09.12. 2:50 0
Mo, 09.12. 2:40 0
Mo, 09.12. 2:30 0
Mo, 09.12. 2:00 0
Mo, 09.12. 0:00 -
Link zu dieser Seite / Seite empfehlen

Das Wetter in ...